createdAt,value
2018-12-12T00:00:20.228Z,97616.13
2018-12-12T00:03:03.110Z,97622.56
2018-12-12T00:05:45.268Z,97624.47
2018-12-12T00:08:20.383Z,97619.35
2018-12-12T00:11:01.955Z,97619.66
2018-12-12T00:13:44.264Z,97614.37
2018-12-12T00:16:29.781Z,97622.36
2018-12-12T00:19:02.677Z,97614.50
2018-12-12T00:21:40.186Z,97608.27
2018-12-12T00:24:21.891Z,97601.72
2018-12-12T00:27:03.879Z,97607.97
2018-12-12T00:29:37.028Z,97603.15
2018-12-12T00:32:09.975Z,97605.06
2018-12-12T00:34:51.951Z,97604.73
2018-12-12T00:37:33.983Z,97598.94
2018-12-12T00:40:07.367Z,97600.41
2018-12-12T00:42:54.090Z,97599.25
2018-12-12T00:45:32.223Z,97602.00
2018-12-12T00:48:05.263Z,97594.33
2018-12-12T00:50:40.865Z,97599.58
2018-12-12T00:53:22.307Z,97598.89
2018-12-12T00:56:03.421Z,97606.11
2018-12-12T00:58:36.658Z,97608.84
2018-12-12T01:01:18.652Z,97610.78
2018-12-12T01:04:00.668Z,97610.80
2018-12-12T01:06:42.555Z,97612.25
2018-12-12T01:09:18.184Z,97613.36
2018-12-12T01:12:09.198Z,97608.70
2018-12-12T01:14:50.451Z,97616.59
2018-12-12T01:17:32.487Z,97618.05
2018-12-12T01:20:14.471Z,97616.02
2018-12-12T01:22:56.526Z,97617.73
2018-12-12T01:25:38.269Z,97620.91
2018-12-12T01:28:11.333Z,97620.69
2018-12-12T01:30:53.169Z,97620.16
2018-12-12T01:33:34.971Z,97626.05
2018-12-12T01:36:16.053Z,97625.95
2018-12-12T01:38:49.213Z,97615.47
2018-12-12T01:41:31.263Z,97614.38
2018-12-12T01:44:04.347Z,97608.77
2018-12-12T01:46:46.352Z,97608.17
2018-12-12T01:49:25.839Z,97607.55
2018-12-12T01:52:00.820Z,97604.69
2018-12-12T01:54:42.101Z,97613.17
2018-12-12T01:57:23.968Z,97615.73
2018-12-12T01:59:57.116Z,97616.00
2018-12-12T02:02:38.423Z,97619.84
2018-12-12T02:05:11.641Z,97622.40
2018-12-12T02:07:53.904Z,97616.42
2018-12-12T02:10:36.093Z,97614.98
2018-12-12T02:13:26.123Z,97614.03
2018-12-12T02:16:03.215Z,97610.49
2018-12-12T02:18:38.263Z,97607.28
2018-12-12T02:21:19.804Z,97605.86
2018-12-12T02:24:05.927Z,97607.23
2018-12-12T02:26:47.692Z,97602.81
2018-12-12T02:29:20.804Z,97595.97
2018-12-12T02:32:02.734Z,97598.77
2018-12-12T02:34:33.908Z,97599.69
2018-12-12T02:37:15.884Z,97600.41
2018-12-12T02:39:49.048Z,97599.16
2018-12-12T02:42:22.010Z,97598.23
2018-12-12T02:45:04.275Z,97591.52
2018-12-12T02:47:45.738Z,97596.92
2018-12-12T02:50:27.720Z,97596.34
2018-12-12T02:53:09.749Z,97590.50
2018-12-12T02:55:51.544Z,97586.14
2018-12-12T02:58:24.787Z,97588.34
2018-12-12T03:01:06.767Z,97589.81
2018-12-12T03:03:48.600Z,97588.83
2018-12-12T03:06:29.680Z,97588.22
2018-12-12T03:09:02.965Z,97583.10
2018-12-12T03:11:36.095Z,97581.88
2018-12-12T03:14:09.247Z,97574.09
2018-12-12T03:16:51.355Z,97581.23
2018-12-12T03:19:24.428Z,97578.69
2018-12-12T03:22:06.436Z,97577.25
2018-12-12T03:24:48.371Z,97580.60
2018-12-12T03:27:29.508Z,97582.84
2018-12-12T03:30:02.837Z,97580.58
2018-12-12T03:32:44.722Z,97572.09
2018-12-12T03:35:26.614Z,97572.39
2018-12-12T03:38:00.021Z,97574.02
2018-12-12T03:40:38.200Z,97571.30
2018-12-12T03:43:09.491Z,97567.73
2018-12-12T03:45:44.923Z,97565.55
2018-12-12T03:48:17.499Z,97560.13
2018-12-12T03:50:53.163Z,97557.72
2018-12-12T03:53:34.853Z,97555.95
2018-12-12T03:56:16.751Z,97556.84
2018-12-12T03:58:49.326Z,97556.06
2018-12-12T04:01:31.351Z,97557.50
2018-12-12T04:04:09.426Z,97562.85
2018-12-12T04:06:50.709Z,97560.88
2018-12-12T04:09:23.703Z,97575.06
2018-12-12T04:12:01.349Z,97570.52
2018-12-12T04:14:43.092Z,97570.91
2018-12-12T04:17:25.125Z,97571.79
2018-12-12T04:19:58.515Z,97564.69
2018-12-12T04:22:40.379Z,97565.98
2018-12-12T04:25:22.215Z,97565.02
2018-12-12T04:27:56.900Z,97557.52
2018-12-12T04:30:38.319Z,97559.63
2018-12-12T04:33:20.300Z,97560.46
2018-12-12T04:36:01.420Z,97566.09
2018-12-12T04:38:36.735Z,97563.19
2018-12-12T04:41:18.425Z,97556.20
2018-12-12T04:43:59.544Z,97560.59
2018-12-12T04:46:40.723Z,97557.63
2018-12-12T04:49:13.875Z,97557.62
2018-12-12T04:51:48.210Z,97561.42
2018-12-12T04:54:29.812Z,97556.16
2018-12-12T04:57:11.846Z,97555.16
2018-12-12T04:59:45.064Z,97554.67
2018-12-12T05:02:28.640Z,97554.01
2018-12-12T05:05:09.988Z,97556.52
2018-12-12T05:07:51.961Z,97559.09
2018-12-12T05:10:33.907Z,97556.72
2018-12-12T05:13:07.480Z,97555.45
2018-12-12T05:15:49.223Z,97554.48
2018-12-12T05:18:25.871Z,97553.84
2018-12-12T05:21:00.652Z,97555.81
2018-12-12T05:23:35.781Z,97559.46
2018-12-12T05:26:16.983Z,97557.84
2018-12-12T05:28:50.175Z,97556.89
2018-12-12T05:31:32.044Z,97552.52
2018-12-12T05:34:15.955Z,97559.42
2018-12-12T05:36:56.983Z,97557.27
2018-12-12T05:39:30.044Z,97554.55
2018-12-12T05:42:11.861Z,97552.30
2018-12-12T05:44:53.812Z,97555.86
2018-12-12T05:47:35.852Z,97555.37
2018-12-12T05:50:09.287Z,97557.69
2018-12-12T05:52:40.111Z,97558.83
2018-12-12T05:55:22.132Z,97566.29
2018-12-12T05:57:55.492Z,97566.33
2018-12-12T06:00:37.895Z,97567.77
2018-12-12T06:03:19.736Z,97561.50
2018-12-12T06:06:01.247Z,97565.74
2018-12-12T06:08:33.673Z,97557.21
2018-12-12T06:11:15.673Z,97554.02
2018-12-12T06:13:57.659Z,97555.35
2018-12-12T06:16:39.637Z,97561.41
2018-12-12T06:19:12.700Z,97564.27
2018-12-12T06:21:54.709Z,97565.61
2018-12-12T06:24:32.368Z,97570.43
2018-12-12T06:27:13.705Z,97566.05
2018-12-12T06:29:46.835Z,97556.02
2018-12-12T06:32:19.203Z,97555.00
2018-12-12T06:35:01.098Z,97554.87
2018-12-12T06:37:43.032Z,97561.77
2018-12-12T06:40:29.961Z,97562.56
2018-12-12T06:43:11.950Z,97560.46
2018-12-12T06:45:53.739Z,97563.11
2018-12-12T06:48:26.991Z,97570.01
2018-12-12T06:51:08.815Z,97567.00
2018-12-12T06:53:50.771Z,97575.76
2018-12-12T06:56:36.894Z,97567.02
2018-12-12T06:59:11.176Z,97569.66
2018-12-12T07:01:53.647Z,97566.99
2018-12-12T07:04:26.071Z,97566.36
2018-12-12T07:06:58.115Z,97565.39
2018-12-12T07:09:30.878Z,97562.95
2018-12-12T07:12:12.620Z,97567.24
2018-12-12T07:14:54.335Z,97566.58
2018-12-12T07:17:33.195Z,97567.45
2018-12-12T07:20:09.002Z,97571.44
2018-12-12T07:22:50.201Z,97567.50
2018-12-12T07:25:31.365Z,97574.52
2018-12-12T07:28:03.719Z,97576.78
2018-12-12T07:30:45.132Z,97570.39
2018-12-12T07:33:21.723Z,97570.59
2018-12-12T07:36:03.686Z,97569.68
2018-12-12T07:38:39.324Z,97567.50
2018-12-12T07:41:17.953Z,97568.02
2018-12-12T07:44:04.335Z,97571.09
2018-12-12T07:46:45.575Z,97564.94
2018-12-12T07:49:26.809Z,97566.95
2018-12-12T07:52:08.475Z,97568.16
2018-12-12T07:54:50.314Z,97562.46
2018-12-12T07:57:29.198Z,97565.55
2018-12-12T08:00:02.390Z,97564.47
2018-12-12T08:02:34.739Z,97559.86
2018-12-12T08:05:16.556Z,97563.41
2018-12-12T08:07:58.575Z,97556.52
2018-12-12T08:10:40.396Z,97561.49
2018-12-12T08:13:22.369Z,97563.59
2018-12-12T08:15:55.444Z,97563.73
2018-12-12T08:18:28.379Z,97561.19
2018-12-12T08:21:10.375Z,97559.40
2018-12-12T08:23:52.396Z,97560.16
2018-12-12T08:26:34.093Z,97561.14
2018-12-12T08:29:09.673Z,97565.41
2018-12-12T08:31:44.586Z,97559.16
2018-12-12T08:34:26.535Z,97560.36
2018-12-12T08:37:08.352Z,97556.89
2018-12-12T08:39:41.551Z,97565.28
2018-12-12T08:42:23.491Z,97570.43
2018-12-12T08:45:05.443Z,97567.47
2018-12-12T08:47:47.387Z,97570.30
2018-12-12T08:50:28.592Z,97561.34
2018-12-12T08:53:01.716Z,97561.58
2018-12-12T08:55:35.183Z,97566.08
2018-12-12T08:58:16.454Z,97566.52
2018-12-12T09:00:58.357Z,97571.72
2018-12-12T09:03:40.324Z,97578.07
2018-12-12T09:06:21.999Z,97566.73
2018-12-12T09:08:57.651Z,97566.50
2018-12-12T09:11:32.895Z,97563.21
2018-12-12T09:14:14.236Z,97558.30
2018-12-12T09:16:56.238Z,97570.14
2018-12-12T09:19:31.647Z,97567.36
2018-12-12T09:22:13.151Z,97564.55
2018-12-12T09:24:44.215Z,97560.82
2018-12-12T09:27:26.052Z,97561.82
2018-12-12T09:29:59.205Z,97558.31
2018-12-12T09:32:41.204Z,97560.73
2018-12-12T09:35:23.035Z,97556.50
2018-12-12T09:38:05.175Z,97552.78
2018-12-12T09:40:46.735Z,97553.64
2018-12-12T09:43:28.622Z,97550.91
2018-12-12T09:46:04.040Z,97547.77
2018-12-12T09:48:39.247Z,97538.93
2018-12-12T09:51:20.769Z,97541.62
2018-12-12T09:54:02.755Z,97540.00
2018-12-12T09:56:44.813Z,97538.81
2018-12-12T09:59:24.237Z,97537.20
2018-12-12T10:02:05.853Z,97530.83
2018-12-12T10:04:47.783Z,97528.47
2018-12-12T10:07:29.742Z,97522.13
2018-12-12T10:10:03.188Z,97516.36
2018-12-12T10:12:43.887Z,97520.39
2018-12-12T10:15:24.999Z,97518.88
2018-12-12T10:17:58.147Z,97516.30
2018-12-12T10:20:40.148Z,97507.45
2018-12-12T10:23:22.132Z,97510.34
2018-12-12T10:26:04.101Z,97508.66
2018-12-12T10:28:37.224Z,97512.91
2018-12-12T10:31:12.849Z,97510.09
2018-12-12T10:33:47.740Z,97508.42
2018-12-12T10:36:18.559Z,97507.71
2018-12-12T10:38:51.900Z,97502.66
2018-12-12T10:41:34.061Z,97496.88
2018-12-12T10:44:15.944Z,97499.84
2018-12-12T10:46:57.839Z,97486.03
2018-12-12T10:49:31.052Z,97478.27
2018-12-12T10:52:13.082Z,97480.44
2018-12-12T10:54:54.764Z,97479.97
2018-12-12T10:57:36.611Z,97479.09
2018-12-12T11:00:12.937Z,97468.77
2018-12-12T11:02:59.952Z,97465.20
2018-12-12T11:05:41.583Z,97456.88
2018-12-12T11:08:13.955Z,97447.45
2018-12-12T11:10:55.796Z,97444.03
2018-12-12T11:13:37.524Z,97437.14
2018-12-12T11:16:19.359Z,97436.36
2018-12-12T11:18:52.324Z,97434.26
2018-12-12T11:21:29.417Z,97432.23
2018-12-12T11:24:13.278Z,97431.04
2018-12-12T11:26:54.483Z,97422.09
2018-12-12T11:29:27.640Z,97418.11
2018-12-12T11:32:09.466Z,97412.36
2018-12-12T11:34:40.579Z,97413.06
2018-12-12T11:37:22.583Z,97403.42
2018-12-12T11:39:54.988Z,97398.06
2018-12-12T11:42:36.759Z,97393.42
2018-12-12T11:45:18.642Z,97393.16
2018-12-12T11:48:00.360Z,97396.87
2018-12-12T11:50:42.220Z,97390.42
2018-12-12T11:53:24.112Z,97385.84
2018-12-12T11:55:55.256Z,97388.66
2018-12-12T11:58:29.976Z,97382.86
2018-12-12T12:01:05.028Z,97385.59
2018-12-12T12:03:46.579Z,97381.36
2018-12-12T12:06:28.604Z,97381.77
2018-12-12T12:09:01.536Z,97379.02
2018-12-12T12:14:16.041Z,97374.11
2018-12-12T12:16:58.059Z,97375.54
2018-12-12T12:19:32.875Z,97364.17
2018-12-12T12:22:14.363Z,97362.61
2018-12-12T12:24:56.303Z,97358.41
2018-12-12T12:27:31.713Z,97359.16
2018-12-12T12:30:07.527Z,97359.19
2018-12-12T12:32:49.231Z,97352.44
2018-12-12T12:35:30.475Z,97348.11
2018-12-12T12:38:06.045Z,97339.42
2018-12-12T12:40:36.591Z,97336.22
2018-12-12T12:43:18.515Z,97329.48
2018-12-12T12:46:00.469Z,97328.73
2018-12-12T12:48:33.819Z,97322.59
2018-12-12T12:51:15.755Z,97319.84
2018-12-12T12:53:51.063Z,97325.32
2018-12-12T12:56:32.458Z,97323.75
2018-12-12T12:59:04.793Z,97314.89
2018-12-12T13:01:37.143Z,97315.08
2018-12-12T13:04:19.140Z,97314.15
2018-12-12T13:06:51.495Z,97314.06
2018-12-12T13:09:24.678Z,97310.37
2018-12-12T13:12:06.610Z,97303.34
2018-12-12T13:14:42.379Z,97306.77
2018-12-12T13:17:13.064Z,97293.04
2018-12-12T13:19:45.999Z,97290.46
2018-12-12T13:22:28.216Z,97297.17
2018-12-12T13:25:07.901Z,97294.69
2018-12-12T13:27:49.974Z,97291.45
2018-12-12T13:30:31.716Z,97281.30
2018-12-12T13:33:07.463Z,97285.70
2018-12-12T13:35:54.256Z,97289.23
2018-12-12T13:38:25.064Z,97283.45
2018-12-12T13:41:15.582Z,97285.03
2018-12-12T13:43:56.794Z,97281.48
2018-12-12T13:46:30.147Z,97270.53
2018-12-12T13:49:04.659Z,97267.46
2018-12-12T13:51:35.759Z,97266.39
2018-12-12T13:54:07.064Z,97259.23
2018-12-12T13:56:50.080Z,97257.69
2018-12-12T13:59:21.081Z,97260.02
2018-12-12T14:02:02.635Z,97258.78
2018-12-12T14:04:43.931Z,97255.30
2018-12-12T14:07:17.347Z,97258.60
2018-12-12T14:09:54.784Z,97262.53
2018-12-12T14:12:36.241Z,97261.52
2018-12-12T14:15:18.157Z,97253.03
2018-12-12T14:18:06.075Z,97256.14
2018-12-12T14:20:47.917Z,97255.95
2018-12-12T14:26:23.087Z,97255.58
2018-12-12T14:28:55.908Z,97251.30
2018-12-12T14:31:37.744Z,97252.72
2018-12-12T14:34:19.706Z,97249.61
2018-12-12T14:36:55.363Z,97243.55
2018-12-12T14:39:28.259Z,97244.78
2018-12-12T14:42:10.020Z,97245.62
2018-12-12T14:44:51.787Z,97244.56
2018-12-12T14:47:22.849Z,97246.90
2018-12-12T14:49:56.039Z,97243.88
2018-12-12T14:52:33.612Z,97247.75
2018-12-12T14:55:04.392Z,97246.05
2018-12-12T14:57:46.339Z,97239.98
2018-12-12T15:00:21.964Z,97242.07
2018-12-12T15:03:03.463Z,97233.86
2018-12-12T15:05:45.295Z,97236.92
2018-12-12T15:08:17.763Z,97233.55
2018-12-12T15:10:58.875Z,97240.75
2018-12-12T15:13:40.763Z,97239.95
2018-12-12T15:16:22.596Z,97231.59
2018-12-12T15:18:55.735Z,97232.27
2018-12-12T15:21:31.274Z,97230.52
2018-12-12T15:24:13.871Z,97228.96
2018-12-12T15:26:55.805Z,97233.38
2018-12-12T15:29:29.006Z,97227.41
2018-12-12T15:32:10.663Z,97233.13
2018-12-12T15:34:52.616Z,97239.06
2018-12-12T15:37:34.556Z,97232.81
2018-12-12T15:40:07.748Z,97234.16
2018-12-12T15:42:49.676Z,97234.98
2018-12-12T15:45:27.336Z,97244.29
2018-12-12T15:48:00.011Z,97237.33
2018-12-12T15:50:41.818Z,97239.46
2018-12-12T15:53:17.341Z,97238.38
2018-12-12T15:55:50.193Z,97243.21
2018-12-12T15:58:29.656Z,97247.02
2018-12-12T16:01:10.977Z,97247.36
2018-12-12T16:03:52.968Z,97246.86
2018-12-12T16:06:26.252Z,97245.84
2018-12-12T16:09:01.827Z,97240.55
2018-12-12T16:11:43.151Z,97240.72
2018-12-12T16:16:57.933Z,97245.97
2018-12-12T16:19:31.001Z,97245.86
2018-12-12T16:22:13.077Z,97244.37
2018-12-12T16:24:54.299Z,97242.45
2018-12-12T16:27:33.965Z,97247.88
2018-12-12T16:30:07.815Z,97245.66
2018-12-12T16:32:42.402Z,97246.59
2018-12-12T16:35:23.981Z,97246.92
2018-12-12T16:38:05.898Z,97254.94
2018-12-12T16:40:47.912Z,97248.05
2018-12-12T16:43:29.895Z,97255.20
2018-12-12T16:49:00.484Z,97259.02
2018-12-12T16:51:42.392Z,97257.45
2018-12-12T16:54:24.361Z,97253.32
2018-12-12T16:57:08.219Z,97250.42
2018-12-12T16:59:40.577Z,97255.05
2018-12-12T17:02:22.383Z,97257.80
2018-12-12T17:05:02.404Z,97253.73
2018-12-12T17:07:43.167Z,97254.02
2018-12-12T17:10:25.205Z,97253.84
2018-12-12T17:13:07.183Z,97256.73
2018-12-12T17:15:39.653Z,97253.56
2018-12-12T17:18:12.760Z,97247.22
2018-12-12T17:20:54.831Z,97251.08
2018-12-12T17:23:41.644Z,97248.71
2018-12-12T17:26:23.756Z,97247.32
2018-12-12T17:28:58.344Z,97242.88
2018-12-12T17:31:39.937Z,97244.08
2018-12-12T17:34:22.656Z,97237.63
2018-12-12T17:36:56.633Z,97242.30
2018-12-12T17:39:30.176Z,97242.98
2018-12-12T17:42:03.428Z,97241.55
2018-12-12T17:44:45.358Z,97244.59
2018-12-12T17:47:15.892Z,97236.27
2018-12-12T17:49:50.977Z,97239.73
2018-12-12T17:52:24.943Z,97239.44
2018-12-12T17:55:00.596Z,97232.89
2018-12-12T17:57:41.878Z,97230.50
2018-12-12T18:00:15.178Z,97229.52
2018-12-12T18:02:50.632Z,97230.44
2018-12-12T18:05:32.021Z,97230.50
2018-12-12T18:08:05.481Z,97235.11
2018-12-12T18:10:38.433Z,97232.62
2018-12-12T18:13:20.419Z,97232.08
2018-12-12T18:16:02.443Z,97229.28
2018-12-12T18:18:35.709Z,97232.55
2018-12-12T18:21:17.579Z,97234.47
2018-12-12T18:23:59.576Z,97231.02
2018-12-12T18:26:41.513Z,97228.04
2018-12-12T18:29:15.588Z,97227.75
2018-12-12T18:31:57.569Z,97227.88
2018-12-12T18:37:39.357Z,97223.42
2018-12-12T18:40:12.570Z,97226.68
2018-12-12T18:42:53.919Z,97218.92
2018-12-12T18:45:27.282Z,97226.36
2018-12-12T18:48:00.333Z,97222.87
2018-12-12T18:50:42.236Z,97224.05
2018-12-12T18:53:15.407Z,97224.95
2018-12-12T18:55:57.221Z,97223.95
2018-12-12T18:58:30.507Z,97224.71
2018-12-12T19:01:12.349Z,97228.22
2018-12-12T19:04:04.553Z,97223.01
2018-12-12T19:06:45.796Z,97226.36
2018-12-12T19:09:19.258Z,97228.05
2018-12-12T19:12:01.248Z,97228.38
2018-12-12T19:15:15.188Z,97227.34
2018-12-12T19:17:56.954Z,97230.97
2018-12-12T19:20:39.447Z,97228.89
2018-12-12T19:23:27.679Z,97221.80
2018-12-12T19:26:09.655Z,97222.25
2018-12-12T19:28:44.161Z,97214.39
2018-12-12T19:31:25.856Z,97215.21
2018-12-12T19:34:07.793Z,97217.14
2018-12-12T19:36:42.947Z,97214.61
2018-12-12T19:39:16.508Z,97216.98
2018-12-12T19:41:58.511Z,97217.05
2018-12-12T19:44:29.786Z,97216.61
2018-12-12T19:47:02.926Z,97219.20
2018-12-12T19:49:36.436Z,97219.91
2018-12-12T19:52:18.211Z,97218.74
2018-12-12T19:55:00.012Z,97222.36
2018-12-12T19:57:42.117Z,97213.43
2018-12-12T20:00:24.996Z,97227.25
2018-12-12T20:03:06.815Z,97220.23
2018-12-12T20:05:48.827Z,97220.02
2018-12-12T20:08:22.020Z,97219.48
2018-12-12T20:11:09.170Z,97216.36
2018-12-12T20:13:42.299Z,97209.66
2018-12-12T20:16:23.602Z,97213.08
2018-12-12T20:18:59.113Z,97205.70
2018-12-12T20:21:41.579Z,97207.79
2018-12-12T20:24:23.192Z,97207.78
2018-12-12T20:27:05.434Z,97201.95
2018-12-12T20:29:38.575Z,97201.52
2018-12-12T20:32:20.465Z,97192.60
2018-12-12T20:35:02.426Z,97198.78
2018-12-12T20:37:48.106Z,97195.64
2018-12-12T20:40:30.347Z,97197.13
2018-12-12T20:43:12.152Z,97191.86
2018-12-12T20:45:47.688Z,97193.69
2018-12-12T20:48:20.936Z,97187.41
2018-12-12T20:51:02.167Z,97189.56
2018-12-12T20:53:52.541Z,97184.22
2018-12-12T20:56:34.121Z,97171.91
2018-12-12T20:59:10.450Z,97177.09
2018-12-12T21:01:52.895Z,97177.34
2018-12-12T21:04:23.640Z,97174.98
2018-12-12T21:06:54.518Z,97168.14
2018-12-12T21:09:27.516Z,97169.31
2018-12-12T21:12:09.589Z,97160.29
2018-12-12T21:14:45.120Z,97162.91
2018-12-12T21:17:28.117Z,97157.37
2018-12-12T21:20:02.009Z,97149.42
2018-12-12T21:22:43.445Z,97150.49
2018-12-12T21:25:27.662Z,97147.00
2018-12-12T21:27:59.791Z,97145.05
2018-12-12T21:30:41.514Z,97140.57
2018-12-12T21:33:20.660Z,97134.43
2018-12-12T21:36:02.596Z,97134.66
2018-12-12T21:38:35.844Z,97127.92
2018-12-12T21:41:22.948Z,97127.22
2018-12-12T21:44:04.783Z,97124.02
2018-12-12T21:46:39.053Z,97117.95
2018-12-12T21:49:12.483Z,97116.45
2018-12-12T21:51:58.131Z,97114.81
2018-12-12T21:54:41.161Z,97114.27
2018-12-12T21:57:22.945Z,97119.67
2018-12-12T21:59:56.236Z,97117.95
2018-12-12T22:02:35.488Z,97113.93
2018-12-12T22:05:16.987Z,97112.09
2018-12-12T22:07:58.708Z,97116.25
2018-12-12T22:10:40.711Z,97114.69
2018-12-12T22:13:22.797Z,97105.75
2018-12-12T22:15:59.374Z,97097.84
2018-12-12T22:18:32.094Z,97096.58
2018-12-12T22:21:18.142Z,97098.77
2018-12-12T22:23:50.307Z,97097.23
2018-12-12T22:26:25.535Z,97094.03
2018-12-12T22:28:57.995Z,97087.88
2018-12-12T22:31:32.807Z,97087.03
2018-12-12T22:34:16.752Z,97087.15
2018-12-12T22:37:02.892Z,97089.23
2018-12-12T22:39:36.215Z,97083.91
2018-12-12T22:42:18.168Z,97077.98
2018-12-12T22:44:52.351Z,97083.83
2018-12-12T22:47:39.048Z,97080.34
2018-12-12T22:50:13.516Z,97081.52
2018-12-12T22:52:49.916Z,97079.02
2018-12-12T22:55:39.340Z,97081.01
2018-12-12T22:58:11.939Z,97080.06
2018-12-12T23:00:58.923Z,97076.88
2018-12-12T23:03:29.691Z,97077.52
2018-12-12T23:06:11.883Z,97077.92
2018-12-12T23:08:46.304Z,97075.93
2018-12-12T23:11:29.267Z,97073.59
2018-12-12T23:14:15.650Z,97074.74
2018-12-12T23:16:56.748Z,97074.76
2018-12-12T23:19:38.659Z,97068.64
2018-12-12T23:22:20.627Z,97066.19
2018-12-12T23:24:57.304Z,97063.80
2018-12-12T23:27:38.980Z,97063.47
2018-12-12T23:30:15.387Z,97051.42
2018-12-12T23:32:58.724Z,97054.70
2018-12-12T23:35:49.814Z,97049.41
2018-12-12T23:38:22.663Z,97049.64
2018-12-12T23:41:00.518Z,97049.88
2018-12-12T23:43:39.972Z,97048.66
2018-12-12T23:46:21.354Z,97049.89
2018-12-12T23:48:54.567Z,97048.62
2018-12-12T23:51:36.347Z,97048.52
2018-12-12T23:54:18.179Z,97049.80
2018-12-12T23:59:43.432Z,97044.19
